Anasayfa İletişim Site Ağacı
TürkçeEnglish

Welcome to our web page!

search  

Reduces - Gearboxes


INTERMEDIATE REDUCERS:

Our intermediate reducers are decreasing the Rpm of pumps and some of them are used in conveyor bands. Our reducers with two gears and some them are with four gears obtain reduction. Our gear hobbing machines cut gears of our reducers, also they are hardened in different styles and gear profiles are abrasived by grinding machines in our facility.

Z-260 (102 HP) TYPE REDUCER / max:75 kW -225 kg

OUTLET RPM MODULE NUMBER OF GEAR TEETH RATIO OF GEAR
(round / minute)
FOR For 1.000 round / minute FOR 1.500 round / minute m Z 1 Z 2 1:Z1/Z2
166 250 6 12 72 01:06
200 300 6 14 70 01:05
273 409 6 18 66 01:03,7
200 300 7 12 60 01:05
220 331 7 13 59 01:04,5
263 394 7 15 57 01:03,8
285 428 7 16 56 01:03,5
333 500 7 18 54 01:03

D TYPE REDUCER

  ØA ØB C D E F G H K RPM RANGE

D - 15

Ø 40

Ø 35 392 140 92 260 307 358 Ø 17 60 - 636 round / minute

D - 30

Ø50

Ø 45 469 152 121 348 410 510 Ø 22 60 - 652 round / minute

1K TYPE REDUCER

1K-175 TYPE REDUCER  max:7,5 kW     35 kg

OUTLET RPM NUMBER OF GEAR TEETH RATIO OF GEAR
(round / minute)
For 1.000 round / minute 1.500 round / minute Z 1 Z 2 1:Z1/Z2
166 250 12 72 01:06,0
183 274 13 71 01:05,5
200 300 14 70 01:05,0
217 326 15 69 01:04,6

 

1K-152 TYPE REDUCER     max:5,5 kW - 22 kg

OUTLET RPM (round / minute) NUMBER OF GEAR TEETH RATIO OF GEAR
For 1.000 round / minute For 1.500 round / minute Z 1 Z 2 1:Z1/Z2
162 244 14 86 01:06,1
176 265 15 85 01:05,7
190 285 16 84 01:05,3
204 307 17 83 01:04,9
219 329 18 82 01:04,6
234 352 19 81 01:04,3
250 375 20 80 01:04,0
265 398 21 79 01:03,8

 

TYPE ØA ØB C D E
1K - 152 Ø40 Ø28 152 8 10
1K - 175 Ø50 Ø32 175 10 14

MOTOR COUPLED REDUCERS:

Our motor-coupled reducers are decreasing the Rpm of pumps and some of them are used in conveyor bands. Our reducers obtain reduction with two gears. Our gear hobbing machines cut gears of our reducers, also they are hardened in different styles and gear profiles are abrasived by grinding machines in our facility.

C TYPE REDUCER

C TYPE REDUCER     max:7,5 KW 30 kg

OUTLET RPM (round / minute) NUMBER OF GEAR TEETH RATIO OF GEAR
For 750 round / minute For 1.000 round / minute For 1.500 round / minute Z 1 Z 2 1:Z1/Z2
250 333 485 17 51 01:03
270 360 525 18 50 01:02,8
291 387 566 19 49 01:02,6
312 416 607 20 48 01:02,4
336 446 653 21 47 01:02,2
358 478 696 22 46 01:02,1
384 511 746 23 45 01:01,9
409 545 795 24 44 01:01,8
436 581 846 25 43 01:01,7
465 619 904 26 42 01:01,6
496 658 964 27 41 01:01,5
528 700 1025 28 40 01:01,4

 

B TYPE REDUCER     max:15 KW     48 kg

OUTLET RPM (round / minute) NUMBER OF GEAR TEETH RATIO OF GEAR
For 750 round / minute For 1.000 round / minute 1.500 round / minute Z 1 Z 2 1:Z1/Z2
180 240 350 18 75 01:04,2
192 256 374 19 74 01:03,9
205 273 400 20 73 01:03,6
219 291 426 21 72 01:03,4
232 309 452 22 71 01:03,2
246 328 479 23 70 01:03,0
261 347 507 24 69 01:02,9
275 367 537 25 68 01:02,7
291 388 566 26 67 01:02,6
307 402 597 27 66 01:02,4
323 430 630 28 65 01:02,3
340 453 670 29 64 01:02,2

 

ROAD SWEEPER GEARBOX & DISTRIBUTOR GEARBOX

Gearboxes are used for changing round of relay tanks, distributors and road sweepers. Gearbox of road sweeper and distributor has 2 speed. Transmit ratio of road sweeper gearbox shall be decreased from 1 to 0,75 and shall be increased from 1 to 1,3.Also transmit ratio of distributor gearbox shall be increased 1 to 3 and shall be increased from 1 to 5,5.

 

AnasayfaİletişimSite Ağacı